createdAt,value
2023-10-23T00:01:40.459Z,97837.43
2023-10-23T00:04:52.096Z,97839.18
2023-10-23T00:08:41.432Z,97831.90
2023-10-23T00:11:35.857Z,97832.77
2023-10-23T00:15:07.421Z,97830.06
2023-10-23T00:18:36.451Z,97830.76
2023-10-23T00:22:05.663Z,97834.16
2023-10-23T00:25:01.363Z,97840.80
2023-10-23T00:28:30.304Z,97838.13
2023-10-23T00:31:36.757Z,97834.15
2023-10-23T00:35:00.867Z,97831.66
2023-10-23T00:38:33.515Z,97828.63
2023-10-23T00:42:22.538Z,97821.63
2023-10-23T00:45:20.738Z,97836.79
2023-10-23T00:48:53.262Z,97849.02
2023-10-23T00:52:42.230Z,97836.78
2023-10-23T00:55:37.332Z,97838.02
2023-10-23T00:58:14.807Z,97844.91
2023-10-23T01:01:42.587Z,97846.17
2023-10-23T01:05:05.375Z,97847.77
2023-10-23T01:08:22.065Z,97848.22
2023-10-23T01:12:11.202Z,97853.67
2023-10-23T01:15:50.379Z,97849.00
2023-10-23T01:19:22.727Z,97849.29
2023-10-23T01:22:26.761Z,97849.04
2023-10-23T01:25:25.976Z,97849.96
2023-10-23T01:28:49.153Z,97857.91
2023-10-23T01:32:31.383Z,97864.55
2023-10-23T01:35:43.692Z,97856.65
2023-10-23T01:38:55.925Z,97856.73
2023-10-23T01:41:52.305Z,97855.84
2023-10-23T01:45:20.069Z,97853.33
2023-10-23T01:48:11.381Z,97861.27
2023-10-23T01:51:50.411Z,97861.35
2023-10-23T01:55:04.798Z,97864.21
2023-10-23T01:58:38.396Z,97864.08
2023-10-23T02:01:41.194Z,97872.80
2023-10-23T02:04:53.005Z,97865.31
2023-10-23T02:07:51.732Z,97867.64
2023-10-23T02:11:40.732Z,97879.23
2023-10-23T02:14:33.102Z,97879.33
2023-10-23T02:17:42.143Z,97880.49
2023-10-23T02:20:28.790Z,97884.59
2023-10-23T02:23:03.433Z,97886.22
2023-10-23T02:25:45.427Z,97890.84
2023-10-23T02:29:17.703Z,97892.09
2023-10-23T02:32:27.128Z,97889.95
2023-10-23T02:36:05.299Z,97892.86
2023-10-23T02:39:30.135Z,97892.33
2023-10-23T02:42:46.171Z,97887.33
2023-10-23T02:45:57.873Z,97883.72
2023-10-23T02:49:09.162Z,97887.84
2023-10-23T02:53:10.660Z,97892.77
2023-10-23T02:56:55.766Z,97895.86
2023-10-23T02:59:47.119Z,97901.23
2023-10-23T03:02:51.378Z,97907.05
2023-10-23T03:06:15.146Z,97910.23
2023-10-23T03:09:09.707Z,97907.08
2023-10-23T03:12:42.610Z,97911.45
2023-10-23T03:16:04.902Z,97911.36
2023-10-23T03:19:09.458Z,97914.63
2023-10-23T03:22:58.429Z,97920.71
2023-10-23T03:26:17.062Z,97925.13
2023-10-23T03:29:36.666Z,97926.21
2023-10-23T03:33:24.630Z,97927.50
2023-10-23T03:37:06.883Z,97929.01
2023-10-23T03:39:51.153Z,97927.95
2023-10-23T03:43:17.784Z,97930.44
2023-10-23T03:46:36.486Z,97928.60
2023-10-23T03:49:32.877Z,97931.85
2023-10-23T03:53:22.078Z,97930.96
2023-10-23T03:57:11.068Z,97926.73
2023-10-23T04:00:50.309Z,97935.73
2023-10-23T04:04:09.880Z,97931.75
2023-10-23T04:07:42.538Z,97936.62
2023-10-23T04:11:05.488Z,97941.31
2023-10-23T04:14:33.272Z,97944.45
2023-10-23T04:17:23.602Z,97945.14
2023-10-23T04:20:05.778Z,97947.16
2023-10-23T04:23:38.558Z,97950.86
2023-10-23T04:27:09.158Z,97952.58
2023-10-23T04:30:43.842Z,97955.71
2023-10-23T04:33:22.881Z,97956.72
2023-10-23T04:36:26.655Z,97958.69
2023-10-23T04:39:12.250Z,97957.86
2023-10-23T04:42:23.638Z,97966.73
2023-10-23T04:45:56.522Z,97969.27
2023-10-23T04:49:02.217Z,97975.73
2023-10-23T04:51:56.722Z,97975.73
2023-10-23T04:55:05.750Z,97983.30
2023-10-23T04:58:32.956Z,97982.64
2023-10-23T05:01:34.487Z,97982.73
2023-10-23T05:05:06.585Z,97995.73
2023-10-23T05:09:08.060Z,98000.09
2023-10-23T05:12:58.938Z,98001.25
2023-10-23T05:16:48.064Z,98002.86
2023-10-23T05:20:35.642Z,98013.91
2023-10-23T05:24:24.687Z,98018.05
2023-10-23T05:28:13.703Z,98015.16
2023-10-23T05:31:25.679Z,98021.60
2023-10-23T05:34:29.958Z,98024.48
2023-10-23T05:37:10.966Z,98030.36
2023-10-23T05:43:28.330Z,98033.23
2023-10-23T05:46:59.848Z,98040.73
2023-10-23T05:50:05.233Z,98048.13
2023-10-23T05:53:06.643Z,98052.92
2023-10-23T05:55:58.181Z,98057.41
2023-10-23T05:58:41.490Z,98062.98
2023-10-23T06:02:02.882Z,98061.69
2023-10-23T06:05:51.881Z,98057.27
2023-10-23T06:09:20.994Z,98060.20
2023-10-23T06:12:44.941Z,98067.14
2023-10-23T06:15:30.716Z,98069.41
2023-10-23T06:19:04.751Z,98068.12
2023-10-23T06:22:07.687Z,98064.25
2023-10-23T06:24:41.201Z,98064.80
2023-10-23T06:28:02.937Z,98070.95
2023-10-23T06:31:20.468Z,98074.67
2023-10-23T06:33:58.301Z,98080.33
2023-10-23T06:37:23.568Z,98078.11
2023-10-23T06:40:35.308Z,98082.98
2023-10-23T06:44:07.704Z,98080.97
2023-10-23T06:47:19.223Z,98083.17
2023-10-23T06:50:33.546Z,98086.69
2023-10-23T06:53:41.243Z,98084.54
2023-10-23T06:56:39.186Z,98091.37
2023-10-23T06:59:55.405Z,98090.35
2023-10-23T07:03:09.661Z,98093.65
2023-10-23T07:06:49.191Z,98096.70
2023-10-23T07:09:18.952Z,98104.52
2023-10-23T07:11:56.169Z,98107.52
2023-10-23T07:14:47.790Z,98107.00
2023-10-23T07:17:36.773Z,98108.75
2023-10-23T07:20:18.175Z,98104.14
2023-10-23T07:23:12.378Z,98105.89
2023-10-23T07:26:18.305Z,98105.79
2023-10-23T07:28:52.684Z,98103.23
2023-10-23T07:32:07.091Z,98106.12
2023-10-23T07:34:54.668Z,98105.70
2023-10-23T07:37:52.845Z,98104.13
2023-10-23T07:40:37.017Z,98110.93
2023-10-23T07:43:32.962Z,98106.66
2023-10-23T07:46:24.642Z,98102.08
2023-10-23T07:49:08.008Z,98100.11
2023-10-23T07:51:44.286Z,98095.21
2023-10-23T07:54:22.170Z,98094.62
2023-10-23T07:57:11.101Z,98092.15
2023-10-23T07:59:45.466Z,98091.54
2023-10-23T08:02:17.275Z,98087.17
2023-10-23T08:04:49.462Z,98087.41
2023-10-23T08:08:03.359Z,98090.71
2023-10-23T08:10:34.137Z,98088.79
2023-10-23T08:13:08.988Z,98094.13
2023-10-23T08:16:01.939Z,98091.29
2023-10-23T08:18:40.658Z,98095.82
2023-10-23T08:21:29.732Z,98096.77
2023-10-23T08:24:33.843Z,98092.18
2023-10-23T08:27:08.286Z,98096.54
2023-10-23T08:30:02.503Z,98100.42
2023-10-23T08:33:10.753Z,98100.06
2023-10-23T08:36:05.397Z,98099.25
2023-10-23T08:38:39.963Z,98091.98
2023-10-23T08:41:55.481Z,98093.22
2023-10-23T08:45:18.018Z,98085.46
2023-10-23T08:48:39.960Z,98087.85
2023-10-23T08:52:00.711Z,98088.04
2023-10-23T08:54:38.481Z,98088.48
2023-10-23T08:57:38.564Z,98091.05
2023-10-23T09:00:11.820Z,98091.30
2023-10-23T09:03:02.209Z,98094.29
2023-10-23T09:05:42.172Z,98092.85
2023-10-23T09:08:34.633Z,98092.61
2023-10-23T09:11:43.019Z,98081.36
2023-10-23T09:14:54.728Z,98083.00
2023-10-23T09:17:43.368Z,98073.09
2023-10-23T09:20:34.144Z,98071.88
2023-10-23T09:23:16.374Z,98068.89
2023-10-23T09:26:18.051Z,98062.29
2023-10-23T09:29:16.704Z,98058.96
2023-10-23T09:32:05.678Z,98056.84
2023-10-23T09:34:50.644Z,98058.06
2023-10-23T09:37:40.194Z,98053.30
2023-10-23T09:40:44.025Z,98042.91
2023-10-23T09:43:15.945Z,98044.27
2023-10-23T09:46:13.221Z,98042.98
2023-10-23T09:48:46.305Z,98039.71
2023-10-23T09:51:25.702Z,98033.32
2023-10-23T09:54:08.255Z,98029.23
2023-10-23T09:56:55.183Z,98022.09
2023-10-23T09:59:53.147Z,98016.80
2023-10-23T10:02:30.764Z,98007.93
2023-10-23T10:05:10.849Z,98011.90
2023-10-23T10:07:55.262Z,98005.95
2023-10-23T10:10:39.994Z,98001.40
2023-10-23T10:13:32.282Z,97997.94
2023-10-23T10:16:13.326Z,97997.84
2023-10-23T10:19:05.687Z,97995.69
2023-10-23T10:21:56.873Z,97990.22
2023-10-23T10:24:35.341Z,97977.20
2023-10-23T10:27:13.144Z,97980.30
2023-10-23T10:29:48.222Z,97980.02
2023-10-23T10:32:19.635Z,97983.02
2023-10-23T10:34:55.353Z,97980.52
2023-10-23T10:37:34.354Z,97986.17
2023-10-23T10:40:13.302Z,97983.42
2023-10-23T10:43:12.159Z,97980.32
2023-10-23T10:45:46.151Z,97983.84
2023-10-23T10:48:54.880Z,97986.06
2023-10-23T10:51:43.832Z,97982.77
2023-10-23T10:54:20.978Z,97977.95
2023-10-23T10:56:53.556Z,97972.00
2023-10-23T10:59:47.886Z,97966.95
2023-10-23T11:02:19.169Z,97963.50
2023-10-23T11:04:48.992Z,97967.39
2023-10-23T11:07:31.163Z,97966.70
2023-10-23T11:10:02.269Z,97961.21
2023-10-23T11:12:33.550Z,97963.09
2023-10-23T11:15:06.286Z,97964.91
2023-10-23T11:17:38.442Z,97959.54
2023-10-23T11:20:15.240Z,97955.13
2023-10-23T11:23:09.561Z,97953.59
2023-10-23T11:25:58.067Z,97949.96
2023-10-23T11:28:51.536Z,97950.79
2023-10-23T11:31:23.057Z,97946.92
2023-10-23T11:34:14.921Z,97947.64
2023-10-23T11:36:55.881Z,97947.59
2023-10-23T11:40:07.803Z,97950.20
2023-10-23T11:43:29.009Z,97949.27
2023-10-23T11:45:57.739Z,97947.95
2023-10-23T11:48:34.771Z,97945.15
2023-10-23T11:51:28.845Z,97948.23
2023-10-23T11:54:14.815Z,97943.67
2023-10-23T11:56:46.939Z,97944.90
2023-10-23T11:59:22.833Z,97940.95
2023-10-23T12:01:56.483Z,97942.17
2023-10-23T12:04:35.697Z,97940.69
2023-10-23T12:07:25.291Z,97938.30
2023-10-23T12:09:56.241Z,97935.65
2023-10-23T12:12:25.101Z,97937.88
2023-10-23T12:14:56.032Z,97936.73
2023-10-23T12:17:24.616Z,97929.15
2023-10-23T12:19:58.795Z,97927.98
2023-10-23T12:22:30.373Z,97928.29
2023-10-23T12:24:58.937Z,97919.88
2023-10-23T12:28:08.592Z,97919.99
2023-10-23T12:30:40.113Z,97917.09
2023-10-23T12:33:19.279Z,97921.77
2023-10-23T12:36:02.025Z,97914.10
2023-10-23T12:38:35.477Z,97909.70
2023-10-23T12:41:04.244Z,97911.05
2023-10-23T12:43:52.876Z,97913.26
2023-10-23T12:46:21.403Z,97914.21
2023-10-23T12:48:52.243Z,97920.91
2023-10-23T12:51:25.841Z,97930.46
2023-10-23T12:54:09.404Z,97941.89
2023-10-23T12:56:40.542Z,97948.02
2023-10-23T12:59:21.134Z,97945.27
2023-10-23T13:02:33.157Z,97936.96
2023-10-23T13:05:10.844Z,97930.15
2023-10-23T13:07:52.727Z,97926.80
2023-10-23T13:10:42.419Z,97917.27
2023-10-23T13:13:10.959Z,97918.22
2023-10-23T13:15:41.962Z,97920.03
2023-10-23T13:18:10.618Z,97917.50
2023-10-23T13:21:33.044Z,97919.58
2023-10-23T13:24:27.789Z,97916.27
2023-10-23T13:27:09.012Z,97909.70
2023-10-23T13:30:01.074Z,97905.76
2023-10-23T13:32:35.114Z,97904.86
2023-10-23T13:35:05.750Z,97908.26
2023-10-23T13:37:35.451Z,97917.59
2023-10-23T13:40:08.175Z,97912.48
2023-10-23T13:42:39.328Z,97912.17
2023-10-23T13:45:08.762Z,97912.14
2023-10-23T13:47:50.748Z,97914.93
2023-10-23T13:50:24.366Z,97917.14
2023-10-23T13:52:59.145Z,97917.52
2023-10-23T13:55:38.032Z,97922.27
2023-10-23T13:58:55.876Z,97923.05
2023-10-23T14:01:59.518Z,97914.20
2023-10-23T14:05:07.157Z,97911.96
2023-10-23T14:07:56.943Z,97915.33
2023-10-23T14:11:57.764Z,97917.05
2023-10-23T14:14:27.126Z,97911.63
2023-10-23T14:17:38.456Z,97915.55
2023-10-23T14:20:11.089Z,97918.92
2023-10-23T14:23:07.257Z,97920.87
2023-10-23T14:25:44.983Z,97917.08
2023-10-23T14:28:44.116Z,97915.48
2023-10-23T14:31:12.523Z,97911.36
2023-10-23T14:33:53.409Z,97914.77
2023-10-23T14:36:33.951Z,97914.39
2023-10-23T14:39:35.721Z,97915.62
2023-10-23T14:42:18.193Z,97921.95
2023-10-23T14:45:52.532Z,97912.52
2023-10-23T14:48:29.855Z,97915.70
2023-10-23T14:51:58.893Z,97919.43
2023-10-23T14:54:50.572Z,97923.79
2023-10-23T14:57:41.976Z,97927.23
2023-10-23T15:04:21.933Z,97919.86
2023-10-23T15:07:37.056Z,97923.81
2023-10-23T15:11:06.580Z,97926.15
2023-10-23T15:13:54.087Z,97934.95
2023-10-23T15:16:42.853Z,97933.09
2023-10-23T15:19:59.913Z,97930.17
2023-10-23T15:23:29.911Z,97927.48
2023-10-23T15:26:29.985Z,97929.75
2023-10-23T15:29:16.740Z,97931.90
2023-10-23T15:32:11.951Z,97930.95
2023-10-23T15:35:26.552Z,97936.88
2023-10-23T15:38:31.329Z,97940.84
2023-10-23T15:42:03.176Z,97940.88
2023-10-23T15:45:13.190Z,97941.95
2023-10-23T15:48:11.868Z,97941.89
2023-10-23T15:52:03.248Z,97940.39
2023-10-23T15:55:26.919Z,97943.33
2023-10-23T15:57:55.647Z,97946.83
2023-10-23T16:00:28.237Z,97944.90
2023-10-23T16:03:00.169Z,97948.13
2023-10-23T16:05:28.946Z,97955.09
2023-10-23T16:07:57.403Z,97964.27
2023-10-23T16:10:32.410Z,97969.18
2023-10-23T16:13:00.794Z,97970.92
2023-10-23T16:15:29.335Z,97973.57
2023-10-23T16:18:00.349Z,97972.58
2023-10-23T16:20:44.044Z,97973.95
2023-10-23T16:23:15.800Z,97976.91
2023-10-23T16:25:50.594Z,97974.31
2023-10-23T16:28:30.544Z,97979.04
2023-10-23T16:31:08.202Z,97984.67
2023-10-23T16:33:42.455Z,97977.46
2023-10-23T16:36:13.451Z,97975.63
2023-10-23T16:38:48.091Z,97985.38
2023-10-23T16:41:19.522Z,97984.19
2023-10-23T16:43:55.076Z,97981.80
2023-10-23T16:46:26.917Z,97979.02
2023-10-23T16:48:55.824Z,97982.83
2023-10-23T16:51:40.190Z,97976.30
2023-10-23T16:54:20.559Z,97981.09
2023-10-23T16:58:01.024Z,97987.46
2023-10-23T17:06:02.143Z,97979.34
2023-10-23T17:09:44.323Z,97975.42
2023-10-23T17:13:33.704Z,97974.73
2023-10-23T17:17:27.134Z,97973.21
2023-10-23T17:21:23.425Z,97972.79
2023-10-23T17:25:05.117Z,97967.27
2023-10-23T17:28:54.498Z,97968.35
2023-10-23T17:32:53.281Z,97970.33
2023-10-23T17:36:37.457Z,97966.61
2023-10-23T17:40:29.695Z,97964.81
2023-10-23T17:43:58.796Z,97972.73
2023-10-23T17:47:52.009Z,97978.29
2023-10-23T17:51:36.055Z,97977.70
2023-10-23T17:55:04.028Z,97982.77
2023-10-23T17:58:19.686Z,97990.25
2023-10-23T18:02:15.852Z,97985.51
2023-10-23T18:06:05.107Z,97984.75
2023-10-23T18:09:54.106Z,97990.70
2023-10-23T18:14:07.116Z,97994.93
2023-10-23T18:17:56.202Z,97997.59
2023-10-23T18:21:45.381Z,98000.87
2023-10-23T18:25:34.571Z,97996.34
2023-10-23T18:28:59.312Z,97999.34
2023-10-23T18:32:35.509Z,98001.74
2023-10-23T18:40:41.946Z,98002.14
2023-10-23T18:44:36.959Z,98001.52
2023-10-23T18:48:26.029Z,97992.59
2023-10-23T18:52:32.074Z,97999.83
2023-10-23T18:56:21.252Z,97997.26
2023-10-23T19:00:23.234Z,97996.42
2023-10-23T19:05:01.097Z,97996.08
2023-10-23T19:08:25.360Z,97994.38
2023-10-23T19:16:37.624Z,97996.54
2023-10-23T19:20:26.010Z,98000.63
2023-10-23T19:28:34.090Z,98006.89
2023-10-23T19:32:31.158Z,98006.52
2023-10-23T19:36:20.307Z,98010.52
2023-10-23T19:40:09.548Z,98016.45
2023-10-23T19:43:58.750Z,98012.40
2023-10-23T19:48:22.584Z,98009.91
2023-10-23T19:52:21.651Z,98006.86
2023-10-23T19:55:59.552Z,98008.89
2023-10-23T19:59:49.116Z,98000.48
2023-10-23T20:04:13.282Z,98000.52
2023-10-23T20:08:01.207Z,98010.12
2023-10-23T20:11:54.586Z,98009.84
2023-10-23T20:15:45.082Z,98010.18
2023-10-23T20:19:34.197Z,98010.52
2023-10-23T20:23:29.187Z,98007.23
2023-10-23T20:27:14.282Z,98008.66
2023-10-23T20:31:03.271Z,98016.75
2023-10-23T20:39:07.953Z,98017.33
2023-10-23T20:47:35.893Z,98004.98
2023-10-23T21:00:54.591Z,97977.30
2023-10-23T21:04:45.088Z,97976.86
2023-10-23T21:26:05.330Z,97989.51
2023-10-23T21:29:57.750Z,97986.71
2023-10-23T21:33:46.848Z,97982.08
2023-10-23T21:37:25.885Z,97973.77
2023-10-23T21:41:09.199Z,97973.50
2023-10-23T21:44:58.788Z,97972.57
2023-10-23T21:48:40.654Z,97967.59
2023-10-23T21:52:21.285Z,97968.92
2023-10-23T21:56:00.854Z,97965.45
2023-10-23T21:59:43.059Z,97965.21
2023-10-23T22:03:32.433Z,97960.96
2023-10-23T22:07:22.925Z,97965.18
2023-10-23T22:11:12.336Z,97960.80
2023-10-23T22:15:01.617Z,97964.95
2023-10-23T22:18:51.541Z,97967.58
2023-10-23T22:22:40.702Z,97969.31
2023-10-23T22:26:29.930Z,97963.89
2023-10-23T22:30:11.289Z,97950.88
2023-10-23T22:34:00.306Z,97944.69
2023-10-23T22:38:06.155Z,97939.27
2023-10-23T22:41:58.543Z,97929.27
2023-10-23T22:45:59.824Z,97934.80
2023-10-23T22:49:51.796Z,97931.13
2023-10-23T22:53:41.150Z,97924.80
2023-10-23T22:57:30.361Z,97920.02
2023-10-23T23:01:19.687Z,97925.06
2023-10-23T23:05:09.220Z,97918.89
2023-10-23T23:08:58.218Z,97919.22
2023-10-23T23:12:37.553Z,97921.77
2023-10-23T23:16:26.970Z,97936.25
2023-10-23T23:20:16.221Z,97941.98
2023-10-23T23:23:55.284Z,97936.30
2023-10-23T23:27:29.391Z,97937.23
2023-10-23T23:31:18.432Z,97943.02
2023-10-23T23:35:07.537Z,97938.53
2023-10-23T23:38:56.594Z,97939.80
2023-10-23T23:42:35.751Z,97936.59
2023-10-23T23:46:24.820Z,97932.85
2023-10-23T23:50:14.136Z,97922.34
2023-10-23T23:54:03.201Z,97925.50
2023-10-23T23:57:52.197Z,97911.23
